createdAt,value
2022-12-01T00:03:50.541Z,7.40
2022-12-01T00:09:18.020Z,6.40
2022-12-01T00:14:22.953Z,6.00
2022-12-01T00:19:27.474Z,9.40
2022-12-01T00:24:30.614Z,5.80
2022-12-01T00:29:33.507Z,5.90
2022-12-01T00:34:38.043Z,4.70
2022-12-01T00:39:40.997Z,5.40
2022-12-01T00:44:44.864Z,5.20
2022-12-01T00:49:48.407Z,5.30
2022-12-01T00:54:51.606Z,4.50
2022-12-01T00:59:54.587Z,5.50
2022-12-01T01:04:57.577Z,5.00
2022-12-01T01:10:00.555Z,3.80
2022-12-01T01:15:04.648Z,5.00
2022-12-01T01:20:08.596Z,5.20
2022-12-01T01:25:11.620Z,5.30
2022-12-01T01:30:15.722Z,5.20
2022-12-01T01:35:18.639Z,3.60
2022-12-01T01:40:21.804Z,5.50
2022-12-01T01:45:29.907Z,5.10
2022-12-01T01:50:32.836Z,5.10
2022-12-01T01:55:36.950Z,4.80
2022-12-01T02:00:43.799Z,5.60
2022-12-01T02:05:47.014Z,6.30
2022-12-01T02:11:28.147Z,4.40
2022-12-01T02:17:20.936Z,4.50
2022-12-01T02:23:14.780Z,4.30
2022-12-01T02:28:44.938Z,3.90
2022-12-01T02:34:18.113Z,4.10
2022-12-01T02:39:42.618Z,4.20
2022-12-01T02:44:47.770Z,4.90
2022-12-01T02:49:53.020Z,3.50
2022-12-01T02:54:57.304Z,3.70
2022-12-01T03:00:01.311Z,3.60
2022-12-01T03:05:12.777Z,3.60
2022-12-01T03:10:34.063Z,3.30
2022-12-01T03:15:53.524Z,3.50
2022-12-01T03:21:10.071Z,3.50
2022-12-01T03:26:21.008Z,2.90
2022-12-01T03:31:33.052Z,3.10
2022-12-01T03:36:56.708Z,3.40
2022-12-01T03:42:33.009Z,3.50
2022-12-01T03:47:37.886Z,4.10
2022-12-01T03:53:03.581Z,4.30
2022-12-01T03:58:17.210Z,4.60
2022-12-01T04:03:25.767Z,5.00
2022-12-01T04:08:30.869Z,4.60
2022-12-01T04:13:33.872Z,4.70
2022-12-01T04:18:36.876Z,4.80
2022-12-01T04:23:58.452Z,5.30
2022-12-01T04:29:07.685Z,5.40
2022-12-01T04:34:11.572Z,6.30
2022-12-01T04:39:14.519Z,6.30
2022-12-01T04:44:17.780Z,6.40
2022-12-01T04:49:21.969Z,6.40
2022-12-01T04:54:26.748Z,6.40
2022-12-01T04:59:29.797Z,6.80
2022-12-01T05:04:34.219Z,7.50
2022-12-01T05:09:37.298Z,8.20
2022-12-01T05:14:40.153Z,7.90
2022-12-01T05:20:01.630Z,7.00
2022-12-01T05:25:04.905Z,7.70
2022-12-01T05:30:08.869Z,7.10
2022-12-01T05:35:11.833Z,8.20
2022-12-01T05:40:14.757Z,7.30
2022-12-01T05:45:17.755Z,8.00
2022-12-01T05:50:20.702Z,8.90
2022-12-01T05:55:23.737Z,8.00
2022-12-01T06:00:26.936Z,8.50
2022-12-01T06:05:29.996Z,9.30
2022-12-01T06:10:33.142Z,8.80
2022-12-01T06:15:36.139Z,7.70
2022-12-01T06:20:39.299Z,7.70
2022-12-01T06:25:42.250Z,9.20
2022-12-01T06:30:45.994Z,8.70
2022-12-01T06:35:48.891Z,9.30
2022-12-01T06:40:51.860Z,9.70
2022-12-01T06:46:00.801Z,10.10
2022-12-01T06:51:04.610Z,10.90
2022-12-01T06:56:07.890Z,10.60
2022-12-01T07:01:13.121Z,11.70
2022-12-01T07:06:17.647Z,11.20
2022-12-01T07:11:20.585Z,10.60
2022-12-01T07:16:23.658Z,16.40
2022-12-01T07:21:26.723Z,12.20
2022-12-01T07:26:29.636Z,16.30
2022-12-01T07:31:33.144Z,14.30
2022-12-01T07:36:36.042Z,12.90
2022-12-01T07:41:39.037Z,11.40
2022-12-01T07:46:42.107Z,13.00
2022-12-01T07:51:45.087Z,8.20
2022-12-01T07:56:48.034Z,11.80
2022-12-01T08:01:51.132Z,18.90
2022-12-01T08:06:54.358Z,25.10
2022-12-01T08:11:57.354Z,19.00
2022-12-01T08:17:00.431Z,16.90
2022-12-01T08:22:03.624Z,16.20
2022-12-01T08:27:06.635Z,19.80
2022-12-01T08:32:09.557Z,20.10
2022-12-01T08:37:12.471Z,22.30
2022-12-01T08:42:15.711Z,20.50
2022-12-01T08:47:19.295Z,61.60
2022-12-01T08:52:22.370Z,15.90
2022-12-01T08:57:25.388Z,13.30
2022-12-01T09:02:28.531Z,15.40
2022-12-01T09:07:33.360Z,11.40
2022-12-01T09:12:36.429Z,39.70
2022-12-01T09:17:39.385Z,25.70
2022-12-01T09:22:42.422Z,17.10
2022-12-01T09:27:45.608Z,13.00
2022-12-01T09:32:48.669Z,22.80
2022-12-01T09:37:51.777Z,18.60
2022-12-01T09:42:55.764Z,17.50
2022-12-01T09:48:03.254Z,11.70
2022-12-01T09:53:19.511Z,12.50
2022-12-01T09:58:30.888Z,12.00
2022-12-01T10:03:48.809Z,10.80
2022-12-01T10:09:18.376Z,11.30
2022-12-01T10:14:22.430Z,12.40
2022-12-01T10:19:37.872Z,12.00
2022-12-01T10:25:05.839Z,12.60
2022-12-01T10:30:10.578Z,13.60
2022-12-01T10:35:18.538Z,12.50
2022-12-01T10:40:23.753Z,14.10
2022-12-01T10:45:31.789Z,13.80
2022-12-01T10:50:35.986Z,11.80
2022-12-01T10:55:44.859Z,12.40
2022-12-01T11:01:04.395Z,10.70
2022-12-01T11:06:08.834Z,12.20
2022-12-01T11:11:40.707Z,14.30
2022-12-01T11:16:48.156Z,13.40
2022-12-01T11:21:57.746Z,22.20
2022-12-01T11:27:01.338Z,19.60
2022-12-01T11:32:20.402Z,15.60
2022-12-01T11:37:50.546Z,14.20
2022-12-01T11:43:06.251Z,28.50
2022-12-01T11:48:12.588Z,16.30
2022-12-01T11:53:43.956Z,10.00
2022-12-01T11:58:52.468Z,11.80
2022-12-01T12:04:14.163Z,29.70
2022-12-01T12:09:17.641Z,27.00
2022-12-01T12:15:19.960Z,18.40
2022-12-01T12:20:47.500Z,37.80
2022-12-01T12:26:18.485Z,45.90
2022-12-01T12:31:40.218Z,32.60
2022-12-01T12:37:07.460Z,60.70
2022-12-01T12:42:29.908Z,16.10
2022-12-01T12:47:51.958Z,11.20
2022-12-01T12:53:09.733Z,13.00
2022-12-01T12:58:36.498Z,12.10
2022-12-01T13:04:08.162Z,15.10
2022-12-01T13:09:46.714Z,32.90
2022-12-01T13:15:01.612Z,13.90
2022-12-01T13:20:07.346Z,13.10
2022-12-01T13:25:22.948Z,14.00
2022-12-01T13:30:27.291Z,15.30
2022-12-01T13:35:36.173Z,16.10
2022-12-01T13:40:39.743Z,38.30
2022-12-01T13:45:42.847Z,20.90
2022-12-01T13:50:48.297Z,14.30
2022-12-01T13:56:03.288Z,28.20
2022-12-01T14:01:22.715Z,27.10
2022-12-01T14:06:49.669Z,20.00
2022-12-01T14:12:11.203Z,71.60
2022-12-01T14:17:37.970Z,36.00
2022-12-01T14:22:46.173Z,28.90
2022-12-01T14:27:56.787Z,20.20
2022-12-01T14:34:04.152Z,23.20
2022-12-01T14:39:18.967Z,23.00
2022-12-01T14:44:55.031Z,23.70
2022-12-01T14:50:28.463Z,17.00
2022-12-01T14:55:42.301Z,11.70
2022-12-01T15:01:13.433Z,10.50
2022-12-01T15:06:20.178Z,17.20
2022-12-01T15:11:26.939Z,15.00
2022-12-01T15:16:32.425Z,14.00
2022-12-01T15:21:38.183Z,13.60
2022-12-01T15:26:49.602Z,17.30
2022-12-01T15:31:59.919Z,18.80
2022-12-01T15:37:13.592Z,12.10
2022-12-01T15:42:27.807Z,13.90
2022-12-01T15:47:47.151Z,12.50
2022-12-01T15:52:50.468Z,24.90
2022-12-01T15:57:54.710Z,29.40
2022-12-01T16:03:00.099Z,19.40
2022-12-01T16:08:27.980Z,15.80
2022-12-01T16:13:48.100Z,16.40
2022-12-01T16:18:59.654Z,16.20
2022-12-01T16:24:06.134Z,14.00
2022-12-01T16:29:22.802Z,17.40
2022-12-01T16:34:45.355Z,15.30
2022-12-01T16:39:50.637Z,17.00
2022-12-01T16:44:53.868Z,17.20
2022-12-01T16:49:57.054Z,14.10
2022-12-01T16:55:00.106Z,16.60
2022-12-01T17:00:03.695Z,10.00
2022-12-01T17:05:07.294Z,10.60
2022-12-01T17:10:11.350Z,10.60
2022-12-01T17:15:14.408Z,15.50
2022-12-01T17:20:17.564Z,14.00
2022-12-01T17:25:20.494Z,14.80
2022-12-01T17:30:24.024Z,18.00
2022-12-01T17:35:27.006Z,14.60
2022-12-01T17:40:29.923Z,13.60
2022-12-01T17:45:32.924Z,13.00
2022-12-01T17:50:35.905Z,14.60
2022-12-01T17:55:41.929Z,12.30
2022-12-01T18:00:44.908Z,12.80
2022-12-01T18:06:02.355Z,14.10
2022-12-01T19:37:23.646Z,10.30
2022-12-01T19:42:26.564Z,10.60
2022-12-01T19:47:34.362Z,12.00
2022-12-01T19:52:37.347Z,11.90
2022-12-01T19:57:40.540Z,10.80
2022-12-01T20:02:43.550Z,11.20
2022-12-01T20:07:47.864Z,12.60
2022-12-01T20:12:51.088Z,14.10
2022-12-01T20:17:54.087Z,14.30
2022-12-01T20:22:57.878Z,11.60
2022-12-01T20:28:01.454Z,11.60
2022-12-01T20:33:04.391Z,19.20
2022-12-01T20:38:07.325Z,17.00
2022-12-01T20:43:10.339Z,13.40
2022-12-01T20:48:13.797Z,18.40
2022-12-01T20:53:16.741Z,17.40
2022-12-01T20:58:19.743Z,13.30
2022-12-01T21:03:22.656Z,15.30
2022-12-01T21:08:25.634Z,9.80
2022-12-01T21:13:42.188Z,11.10
2022-12-01T21:18:52.935Z,9.80
2022-12-01T21:24:08.232Z,9.30
2022-12-01T21:29:20.764Z,10.50
2022-12-01T21:34:26.887Z,11.70
2022-12-01T21:39:30.534Z,10.40
2022-12-01T21:44:37.774Z,9.40
2022-12-01T21:49:41.013Z,9.80
2022-12-01T21:54:44.044Z,9.10
2022-12-01T21:59:48.097Z,9.80
2022-12-01T22:04:51.171Z,12.80
2022-12-01T22:09:54.408Z,11.00
2022-12-01T22:15:01.620Z,9.30
2022-12-01T22:20:22.546Z,10.70
2022-12-01T22:25:27.684Z,11.30
2022-12-01T22:30:30.583Z,9.10
2022-12-01T22:35:44.974Z,14.90
2022-12-01T22:41:00.377Z,9.70
2022-12-01T22:46:17.627Z,11.10
2022-12-01T22:51:20.490Z,10.40
2022-12-01T22:56:34.000Z,11.00
2022-12-01T23:01:43.645Z,10.50
2022-12-01T23:06:57.189Z,9.50
2022-12-01T23:12:28.733Z,10.30
2022-12-01T23:17:35.603Z,10.40
2022-12-01T23:22:39.035Z,10.80
2022-12-01T23:27:43.281Z,11.50
2022-12-01T23:33:13.438Z,9.60
2022-12-01T23:38:25.227Z,11.10
2022-12-01T23:43:34.807Z,11.60
2022-12-01T23:48:47.913Z,9.80
2022-12-01T23:53:53.058Z,9.00
2022-12-01T23:59:00.357Z,10.60
